UAL1783 KLAX-KBOS
Flight info
| Callsign | UAL1783 |
|---|---|
| Flight time | N/A |
| Altitude | 37000 |
| Route | DOTSS2 CLEEE PKE J96 CIM SLN IRK JOT J146 GIJ J554 JHW Q82 PONCT JFUND2 |
| Aircraft | B38M/M-SDE1FGHILORVWXY/HB1 |
Departure
| Time | 2026-05-06 12:59 |
|---|---|
| Airport | Los Angeles International Airport (KLAX) |
Arrival
| Time | N/A |
|---|---|
| Airport | Boston Logan International Airport (KBOS) |
| Time | Latitude | Longitude | Altitude | Speed | Heading |
|---|---|---|---|---|---|
| 2026-05-06 12:39 | 33.94237 | -118.39796 | 128 ft | 0 kts | 85° |
| 2026-05-06 12:47 | 33.94237 | -118.39795 | 128 ft | 0 kts | 85° |
| 2026-05-06 12:49 | 33.94237 | -118.39800 | 123 ft | 3 kts | 85° |
| 2026-05-06 12:49 | 33.94235 | -118.39812 | 127 ft | 4 kts | 89° |
| 2026-05-06 12:50 | 33.94242 | -118.39840 | 123 ft | 4 kts | 135° |
| 2026-05-06 12:50 | 33.94260 | -118.39851 | 127 ft | 1 kts | 174° |
| 2026-05-06 12:53 | 33.94238 | -118.39845 | 125 ft | 7 kts | 174° |
| 2026-05-06 12:53 | 33.94195 | -118.39839 | 125 ft | 15 kts | 173° |
| 2026-05-06 12:54 | 33.94093 | -118.39825 | 125 ft | 24 kts | 175° |
| 2026-05-06 12:54 | 33.93942 | -118.39799 | 125 ft | 18 kts | 152° |
| 2026-05-06 12:54 | 33.93910 | -118.39690 | 128 ft | 15 kts | 82° |
| 2026-05-06 12:54 | 33.93923 | -118.39563 | 128 ft | 16 kts | 83° |
| 2026-05-06 12:55 | 33.93937 | -118.39423 | 126 ft | 18 kts | 85° |
| 2026-05-06 12:55 | 33.93954 | -118.39272 | 126 ft | 19 kts | 82° |
| 2026-05-06 12:55 | 33.93970 | -118.39111 | 124 ft | 20 kts | 83° |
| 2026-05-06 12:55 | 33.93987 | -118.38940 | 128 ft | 21 kts | 83° |
| 2026-05-06 12:56 | 33.94006 | -118.38760 | 128 ft | 22 kts | 82° |
| 2026-05-06 12:56 | 33.94030 | -118.38576 | 127 ft | 18 kts | 85° |
| 2026-05-06 12:56 | 33.94041 | -118.38421 | 123 ft | 19 kts | 82° |
| 2026-05-06 12:56 | 33.94048 | -118.38355 | 128 ft | 0 kts | 82° |
| 2026-05-06 12:57 | 33.94052 | -118.38320 | 126 ft | 11 kts | 84° |
| 2026-05-06 12:57 | 33.94065 | -118.38181 | 128 ft | 22 kts | 82° |
| 2026-05-06 12:57 | 33.94075 | -118.38031 | 128 ft | 9 kts | 110° |
| 2026-05-06 12:57 | 33.94015 | -118.37998 | 126 ft | 13 kts | 188° |
| 2026-05-06 12:58 | 33.93973 | -118.38112 | 128 ft | 23 kts | 264° |
| 2026-05-06 12:58 | 33.93930 | -118.38556 | 128 ft | 88 kts | 263° |
| 2026-05-06 12:58 | 33.93828 | -118.39547 | 127 ft | 149 kts | 263° |
| 2026-05-06 12:58 | 33.93691 | -118.40934 | 385 ft | 178 kts | 264° |
| 2026-05-06 12:59 | 33.93529 | -118.42469 | 1072 ft | 188 kts | 262° |
| 2026-05-06 12:59 | 33.93362 | -118.44018 | 1981 ft | 185 kts | 263° |
| 2026-05-06 12:59 | 33.93151 | -118.45617 | 2392 ft | 203 kts | 254° |
| 2026-05-06 12:59 | 33.92454 | -118.47177 | 2802 ft | 222 kts | 233° |
| 2026-05-06 13:00 | 33.91452 | -118.48688 | 3284 ft | 238 kts | 231° |
| 2026-05-06 13:00 | 33.90357 | -118.50237 | 3964 ft | 245 kts | 229° |
| 2026-05-06 13:00 | 33.89216 | -118.51757 | 4809 ft | 246 kts | 231° |
| 2026-05-06 13:00 | 33.88075 | -118.53366 | 5360 ft | 260 kts | 231° |
| 2026-05-06 13:01 | 33.86791 | -118.54955 | 5782 ft | 280 kts | 216° |
| 2026-05-06 13:01 | 33.84966 | -118.55804 | 6481 ft | 283 kts | 185° |
| 2026-05-06 13:01 | 33.83013 | -118.55630 | 7232 ft | 285 kts | 166° |
| 2026-05-06 13:01 | 33.81054 | -118.55114 | 7896 ft | 290 kts | 166° |
| 2026-05-06 13:02 | 33.79082 | -118.54595 | 8670 ft | 292 kts | 165° |
| 2026-05-06 13:02 | 33.77088 | -118.54062 | 9396 ft | 295 kts | 165° |
| 2026-05-06 13:02 | 33.75074 | -118.53521 | 10125 ft | 298 kts | 164° |
| 2026-05-06 13:02 | 33.73018 | -118.52969 | 10592 ft | 310 kts | 164° |
| 2026-05-06 13:03 | 33.70987 | -118.51997 | 10910 ft | 320 kts | 142° |
| 2026-05-06 13:03 | 33.69437 | -118.50124 | 11324 ft | 324 kts | 119° |
| 2026-05-06 13:03 | 33.68495 | -118.47647 | 11820 ft | 330 kts | 107° |
| 2026-05-06 13:03 | 33.67926 | -118.45818 | 12322 ft | 331 kts | 107° |
| 2026-05-06 13:04 | 33.67165 | -118.43338 | 12975 ft | 336 kts | 106° |
| 2026-05-06 13:04 | 33.66363 | -118.40683 | 13677 ft | 340 kts | 105° |
| 2026-05-06 13:04 | 33.65558 | -118.37996 | 14339 ft | 344 kts | 105° |
| 2026-05-06 13:04 | 33.64765 | -118.35272 | 15010 ft | 346 kts | 101° |
| 2026-05-06 13:05 | 33.64510 | -118.32445 | 15705 ft | 341 kts | 85° |
| 2026-05-06 13:05 | 33.64497 | -118.29574 | 16329 ft | 347 kts | 86° |
| 2026-05-06 13:05 | 33.64480 | -118.26711 | 16995 ft | 349 kts | 86° |
| 2026-05-06 13:05 | 33.64472 | -118.23784 | 17650 ft | 352 kts | 86° |
| 2026-05-06 13:06 | 33.64469 | -118.20834 | 18293 ft | 355 kts | 86° |
| 2026-05-06 13:06 | 33.64469 | -118.17856 | 18854 ft | 358 kts | 86° |
| 2026-05-06 13:06 | 33.64468 | -118.14851 | 19376 ft | 361 kts | 86° |
| 2026-05-06 13:06 | 33.64467 | -118.11828 | 19928 ft | 364 kts | 85° |
| 2026-05-06 13:07 | 33.64465 | -118.08779 | 20472 ft | 366 kts | 85° |
| 2026-05-06 13:07 | 33.64463 | -118.05714 | 21004 ft | 369 kts | 85° |
| 2026-05-06 13:07 | 33.64460 | -118.02663 | 21551 ft | 372 kts | 85° |
| 2026-05-06 13:07 | 33.64456 | -117.99551 | 22075 ft | 375 kts | 85° |
| 2026-05-06 13:08 | 33.64451 | -117.96407 | 22585 ft | 378 kts | 85° |
| 2026-05-06 13:08 | 33.64445 | -117.93254 | 23113 ft | 380 kts | 85° |
| 2026-05-06 13:08 | 33.64439 | -117.90067 | 23627 ft | 382 kts | 85° |
| 2026-05-06 13:08 | 33.64431 | -117.86867 | 24052 ft | 385 kts | 85° |
| 2026-05-06 13:09 | 33.64423 | -117.83641 | 24472 ft | 387 kts | 85° |
| 2026-05-06 13:09 | 33.64427 | -117.80407 | 24911 ft | 387 kts | 82° |
| 2026-05-06 13:09 | 33.64876 | -117.77299 | 25299 ft | 383 kts | 72° |
| 2026-05-06 13:09 | 33.65471 | -117.74166 | 25679 ft | 386 kts | 73° |
| 2026-05-06 13:10 | 33.66063 | -117.71021 | 26092 ft | 388 kts | 73° |
| 2026-05-06 13:10 | 33.66667 | -117.67854 | 26484 ft | 390 kts | 73° |
| 2026-05-06 13:10 | 33.67276 | -117.64674 | 26860 ft | 392 kts | 73° |
| 2026-05-06 13:10 | 33.67889 | -117.61480 | 27247 ft | 394 kts | 72° |
| 2026-05-06 13:11 | 33.68505 | -117.58267 | 27627 ft | 396 kts | 73° |
| 2026-05-06 13:11 | 33.69113 | -117.55090 | 27965 ft | 398 kts | 73° |
| 2026-05-06 13:11 | 33.69733 | -117.51845 | 28324 ft | 399 kts | 73° |
| 2026-05-06 13:11 | 33.70355 | -117.48585 | 28623 ft | 402 kts | 73° |
| 2026-05-06 13:12 | 33.70979 | -117.45310 | 29041 ft | 403 kts | 73° |
| 2026-05-06 13:12 | 33.71605 | -117.42024 | 29376 ft | 405 kts | 73° |
| 2026-05-06 13:12 | 33.72233 | -117.38719 | 29708 ft | 407 kts | 73° |
| 2026-05-06 13:12 | 33.72863 | -117.35398 | 30051 ft | 409 kts | 73° |
| 2026-05-06 13:13 | 33.73495 | -117.32060 | 30340 ft | 411 kts | 73° |
| 2026-05-06 13:13 | 33.74130 | -117.28707 | 30616 ft | 412 kts | 73° |
| 2026-05-06 13:13 | 33.74766 | -117.25337 | 30908 ft | 414 kts | 73° |
| 2026-05-06 13:13 | 33.75090 | -117.21881 | 31181 ft | 422 kts | 87° |
| 2026-05-06 13:14 | 33.74995 | -117.18350 | 31538 ft | 422 kts | 85° |
| 2026-05-06 13:14 | 33.74953 | -117.14854 | 31715 ft | 426 kts | 86° |
| 2026-05-06 13:14 | 33.74892 | -117.11286 | 32009 ft | 427 kts | 86° |
| 2026-05-06 13:14 | 33.74823 | -117.07718 | 32293 ft | 428 kts | 86° |
| 2026-05-06 13:15 | 33.74749 | -117.04147 | 32646 ft | 427 kts | 86° |
| 2026-05-06 13:15 | 33.74674 | -117.00585 | 33025 ft | 426 kts | 86° |
| 2026-05-06 13:15 | 33.74598 | -116.97030 | 33366 ft | 425 kts | 86° |
| 2026-05-06 13:15 | 33.74521 | -116.93484 | 33692 ft | 425 kts | 86° |
| 2026-05-06 13:16 | 33.74443 | -116.89939 | 34027 ft | 424 kts | 86° |
| 2026-05-06 13:16 | 33.74365 | -116.86446 | 34318 ft | 424 kts | 86° |
| 2026-05-06 13:16 | 33.74285 | -116.82909 | 34536 ft | 425 kts | 87° |
| 2026-05-06 13:16 | 33.74204 | -116.79355 | 34719 ft | 426 kts | 87° |
| 2026-05-06 13:17 | 33.74121 | -116.75792 | 34927 ft | 427 kts | 87° |
| 2026-05-06 13:17 | 33.74038 | -116.72231 | 35074 ft | 428 kts | 87° |
| 2026-05-06 13:17 | 33.73953 | -116.68653 | 35269 ft | 429 kts | 87° |
| 2026-05-06 13:17 | 33.73868 | -116.65067 | 35421 ft | 430 kts | 88° |
| 2026-05-06 13:18 | 33.73780 | -116.61469 | 35632 ft | 431 kts | 88° |
| 2026-05-06 13:18 | 33.73692 | -116.57913 | 35839 ft | 432 kts | 88° |
| 2026-05-06 13:18 | 33.73602 | -116.54300 | 36028 ft | 433 kts | 88° |
| 2026-05-06 13:18 | 33.73511 | -116.50681 | 36193 ft | 435 kts | 88° |
| 2026-05-06 13:19 | 33.73419 | -116.47044 | 36362 ft | 436 kts | 88° |
| 2026-05-06 13:19 | 33.73325 | -116.43399 | 36537 ft | 437 kts | 88° |
| 2026-05-06 13:19 | 33.73230 | -116.39748 | 36692 ft | 438 kts | 88° |
| 2026-05-06 13:19 | 33.73133 | -116.36089 | 36841 ft | 439 kts | 89° |
| 2026-05-06 13:20 | 33.73036 | -116.32418 | 36976 ft | 440 kts | 89° |
| 2026-05-06 13:20 | 33.72838 | -116.25114 | 37026 ft | 441 kts | 89° |
| 2026-05-06 13:21 | 33.72634 | -116.17749 | 37028 ft | 441 kts | 89° |
| 2026-05-06 13:21 | 33.72428 | -116.10372 | 37027 ft | 442 kts | 88° |
| 2026-05-06 13:21 | 33.72702 | -116.06736 | 37009 ft | 435 kts | 72° |
| 2026-05-06 13:22 | 33.73593 | -116.03269 | 37022 ft | 436 kts | 71° |
| 2026-05-06 13:22 | 33.75417 | -115.96361 | 37026 ft | 437 kts | 70° |
| 2026-05-06 13:23 | 33.77321 | -115.89421 | 37028 ft | 438 kts | 70° |
| 2026-05-06 13:23 | 33.79243 | -115.82473 | 37024 ft | 438 kts | 70° |
| 2026-05-06 13:24 | 33.81164 | -115.75516 | 37030 ft | 439 kts | 70° |
| 2026-05-06 13:24 | 33.83068 | -115.68603 | 37028 ft | 439 kts | 70° |
| 2026-05-06 13:25 | 33.84985 | -115.61627 | 37031 ft | 439 kts | 70° |
| 2026-05-06 13:25 | 33.86901 | -115.54639 | 37030 ft | 440 kts | 70° |
| 2026-05-06 13:26 | 33.88817 | -115.47634 | 37023 ft | 441 kts | 70° |
| 2026-05-06 13:26 | 33.90719 | -115.40658 | 37021 ft | 442 kts | 70° |
| 2026-05-06 13:27 | 33.92632 | -115.33628 | 37021 ft | 442 kts | 70° |
| 2026-05-06 13:27 | 33.94543 | -115.26584 | 37020 ft | 443 kts | 70° |
| 2026-05-06 13:28 | 33.96452 | -115.19531 | 37014 ft | 443 kts | 70° |
| 2026-05-06 13:28 | 33.98346 | -115.12517 | 37010 ft | 444 kts | 70° |
| 2026-05-06 13:29 | 34.00253 | -115.05434 | 37011 ft | 444 kts | 70° |
| 2026-05-06 13:29 | 34.02157 | -114.98344 | 37004 ft | 445 kts | 71° |
| 2026-05-06 13:30 | 34.04059 | -114.91245 | 37003 ft | 445 kts | 71° |
| 2026-05-06 13:30 | 34.05946 | -114.84186 | 37001 ft | 446 kts | 71° |
| 2026-05-06 13:31 | 34.07848 | -114.77052 | 37002 ft | 447 kts | 71° |
| 2026-05-06 13:31 | 34.09746 | -114.69919 | 36995 ft | 447 kts | 71° |
| 2026-05-06 13:32 | 34.11755 | -114.62812 | 36989 ft | 448 kts | 70° |
| 2026-05-06 13:32 | 34.13751 | -114.55747 | 36980 ft | 448 kts | 70° |
| 2026-05-06 13:33 | 34.15757 | -114.48618 | 36971 ft | 449 kts | 70° |
| 2026-05-06 13:33 | 34.17761 | -114.41482 | 36977 ft | 449 kts | 70° |
| 2026-05-06 13:34 | 34.19751 | -114.34376 | 36969 ft | 450 kts | 70° |
| 2026-05-06 13:34 | 34.21752 | -114.27211 | 36971 ft | 450 kts | 70° |
| 2026-05-06 13:35 | 34.23751 | -114.20040 | 36972 ft | 451 kts | 70° |
| 2026-05-06 13:35 | 34.25410 | -114.14071 | 36975 ft | 451 kts | 70° |
| 2026-05-06 13:36 | 34.27730 | -114.05715 | 36972 ft | 451 kts | 70° |
| 2026-05-06 13:36 | 34.29724 | -113.98520 | 36968 ft | 451 kts | 70° |
| 2026-05-06 13:37 | 34.31379 | -113.92536 | 36965 ft | 452 kts | 70° |
| 2026-05-06 13:37 | 34.33369 | -113.85322 | 36970 ft | 452 kts | 70° |
| 2026-05-06 13:38 | 34.35679 | -113.76922 | 36970 ft | 453 kts | 71° |
| 2026-05-06 13:38 | 34.37665 | -113.69683 | 36964 ft | 453 kts | 71° |
| 2026-05-06 13:39 | 34.39314 | -113.63656 | 36972 ft | 454 kts | 71° |
| 2026-05-06 13:39 | 34.41296 | -113.56396 | 36968 ft | 454 kts | 71° |
| 2026-05-06 13:40 | 34.43596 | -113.47944 | 36971 ft | 455 kts | 71° |
| 2026-05-06 13:40 | 34.45253 | -113.41842 | 36961 ft | 455 kts | 71° |
| 2026-05-06 13:41 | 34.47215 | -113.34594 | 36970 ft | 456 kts | 71° |
| 2026-05-06 13:41 | 34.49189 | -113.27289 | 36971 ft | 456 kts | 71° |
| 2026-05-06 13:42 | 34.51161 | -113.19972 | 36973 ft | 457 kts | 71° |
| 2026-05-06 13:42 | 34.53117 | -113.12686 | 36977 ft | 458 kts | 71° |
| 2026-05-06 13:43 | 34.55085 | -113.05340 | 36980 ft | 459 kts | 71° |
| 2026-05-06 13:43 | 34.57053 | -112.97973 | 36983 ft | 459 kts | 71° |
| 2026-05-06 13:44 | 34.59021 | -112.90588 | 36983 ft | 460 kts | 71° |
| 2026-05-06 13:44 | 34.60988 | -112.83187 | 36996 ft | 461 kts | 71° |
| 2026-05-06 13:45 | 34.62939 | -112.75822 | 37031 ft | 462 kts | 71° |
| 2026-05-06 13:45 | 34.65884 | -112.64673 | 37073 ft | 462 kts | 71° |
| 2026-05-06 13:46 | 34.67846 | -112.57226 | 37099 ft | 463 kts | 71° |
| 2026-05-06 13:46 | 34.69790 | -112.49823 | 37124 ft | 464 kts | 71° |
| 2026-05-06 13:47 | 34.71536 | -112.42268 | 37123 ft | 465 kts | 73° |
| 2026-05-06 13:47 | 34.73280 | -112.34696 | 37119 ft | 465 kts | 73° |
| 2026-05-06 13:48 | 34.75025 | -112.27115 | 37096 ft | 466 kts | 73° |
| 2026-05-06 13:48 | 34.76759 | -112.19567 | 37079 ft | 467 kts | 73° |
| 2026-05-06 13:49 | 34.78500 | -112.11960 | 37065 ft | 467 kts | 74° |
| 2026-05-06 13:49 | 34.80240 | -112.04334 | 37096 ft | 468 kts | 73° |
| 2026-05-06 13:50 | 34.81979 | -111.96685 | 37116 ft | 469 kts | 74° |
| 2026-05-06 13:50 | 34.83703 | -111.89081 | 37130 ft | 470 kts | 74° |
| 2026-05-06 13:51 | 34.85438 | -111.81405 | 37131 ft | 471 kts | 74° |
| 2026-05-06 13:51 | 34.87171 | -111.73715 | 37131 ft | 471 kts | 74° |
| 2026-05-06 13:52 | 34.88901 | -111.66009 | 37123 ft | 472 kts | 74° |
| 2026-05-06 13:52 | 34.90618 | -111.58340 | 37115 ft | 473 kts | 74° |
| 2026-05-06 13:53 | 34.92344 | -111.50603 | 37102 ft | 474 kts | 74° |
| 2026-05-06 13:53 | 34.94070 | -111.42847 | 37098 ft | 475 kts | 74° |
| 2026-05-06 13:54 | 34.95788 | -111.35074 | 37075 ft | 475 kts | 74° |
| 2026-05-06 13:54 | 34.97490 | -111.27347 | 37055 ft | 476 kts | 75° |
| 2026-05-06 13:55 | 34.99202 | -111.19546 | 37042 ft | 476 kts | 75° |
| 2026-05-06 13:55 | 35.00911 | -111.11738 | 37042 ft | 477 kts | 75° |
| 2026-05-06 13:56 | 35.02615 | -111.03922 | 37052 ft | 477 kts | 75° |
| 2026-05-06 13:56 | 35.04307 | -110.96138 | 37063 ft | 478 kts | 75° |
| 2026-05-06 13:57 | 35.06009 | -110.88284 | 37079 ft | 479 kts | 75° |
| 2026-05-06 13:57 | 35.07708 | -110.80414 | 37093 ft | 480 kts | 75° |
| 2026-05-06 13:58 | 35.09394 | -110.72578 | 37094 ft | 481 kts | 75° |
| 2026-05-06 13:58 | 35.11089 | -110.64671 | 37086 ft | 482 kts | 75° |
| 2026-05-06 13:59 | 35.12782 | -110.56748 | 37069 ft | 482 kts | 75° |
| 2026-05-06 13:59 | 35.14473 | -110.48808 | 37049 ft | 483 kts | 75° |
| 2026-05-06 14:00 | 35.16150 | -110.40903 | 37028 ft | 484 kts | 75° |
| 2026-05-06 14:00 | 35.17835 | -110.32935 | 37008 ft | 485 kts | 75° |
| 2026-05-06 14:01 | 35.19518 | -110.24950 | 37011 ft | 486 kts | 75° |
| 2026-05-06 14:01 | 35.21200 | -110.16940 | 37009 ft | 487 kts | 75° |
| 2026-05-06 14:02 | 35.22867 | -110.08972 | 37009 ft | 488 kts | 76° |
| 2026-05-06 14:02 | 35.24544 | -110.00928 | 37006 ft | 488 kts | 76° |
| 2026-05-06 14:03 | 35.26219 | -109.92864 | 37007 ft | 490 kts | 76° |
| 2026-05-06 14:03 | 35.27892 | -109.84782 | 37005 ft | 490 kts | 76° |
| 2026-05-06 14:04 | 35.29552 | -109.76735 | 37004 ft | 491 kts | 76° |
| 2026-05-06 14:04 | 35.31220 | -109.68613 | 37012 ft | 493 kts | 76° |
| 2026-05-06 14:05 | 35.32888 | -109.60469 | 37009 ft | 493 kts | 76° |
| 2026-05-06 14:05 | 35.34551 | -109.52314 | 36999 ft | 494 kts | 76° |
| 2026-05-06 14:06 | 35.36201 | -109.44194 | 37015 ft | 495 kts | 76° |
| 2026-05-06 14:06 | 35.37860 | -109.36003 | 37001 ft | 496 kts | 76° |
| 2026-05-06 14:07 | 35.39517 | -109.27788 | 37022 ft | 497 kts | 76° |
| 2026-05-06 14:07 | 35.41171 | -109.19558 | 37043 ft | 498 kts | 76° |
| 2026-05-06 14:08 | 35.42812 | -109.11363 | 37053 ft | 499 kts | 76° |
| 2026-05-06 14:08 | 35.44462 | -109.03096 | 37072 ft | 500 kts | 76° |
| 2026-05-06 14:09 | 35.46113 | -108.94800 | 37117 ft | 501 kts | 76° |
| 2026-05-06 14:09 | 35.47859 | -108.86522 | 37135 ft | 501 kts | 69° |
| 2026-05-06 14:10 | 35.50156 | -108.78497 | 37136 ft | 503 kts | 71° |
| 2026-05-06 14:10 | 35.52382 | -108.70354 | 37137 ft | 503 kts | 71° |
| 2026-05-06 14:11 | 35.54595 | -108.62194 | 37121 ft | 504 kts | 71° |
| 2026-05-06 14:11 | 35.56805 | -108.54023 | 37085 ft | 505 kts | 71° |
| 2026-05-06 14:12 | 35.58999 | -108.45885 | 37053 ft | 505 kts | 71° |
| 2026-05-06 14:12 | 35.61202 | -108.37688 | 37016 ft | 506 kts | 71° |
| 2026-05-06 14:13 | 35.63406 | -108.29463 | 37005 ft | 507 kts | 71° |
| 2026-05-06 14:13 | 35.65606 | -108.21224 | 36996 ft | 508 kts | 72° |
| 2026-05-06 14:14 | 35.67791 | -108.13021 | 36993 ft | 508 kts | 72° |
| 2026-05-06 14:14 | 35.69988 | -108.04745 | 36995 ft | 510 kts | 72° |
| 2026-05-06 14:15 | 35.72182 | -107.96451 | 36989 ft | 510 kts | 72° |
| 2026-05-06 14:15 | 35.74375 | -107.88139 | 36988 ft | 511 kts | 72° |
| 2026-05-06 14:16 | 35.76551 | -107.79865 | 36990 ft | 512 kts | 72° |
| 2026-05-06 14:16 | 35.78739 | -107.71517 | 36987 ft | 513 kts | 72° |
| 2026-05-06 14:17 | 35.80925 | -107.63151 | 36984 ft | 513 kts | 72° |
| 2026-05-06 14:17 | 35.83107 | -107.54772 | 36986 ft | 514 kts | 72° |
| 2026-05-06 14:18 | 35.85274 | -107.46427 | 36983 ft | 515 kts | 72° |
| 2026-05-06 14:18 | 35.87452 | -107.38009 | 36980 ft | 516 kts | 72° |
| 2026-05-06 14:19 | 35.89628 | -107.29572 | 36977 ft | 517 kts | 72° |
| 2026-05-06 14:19 | 35.91802 | -107.21116 | 36971 ft | 517 kts | 73° |
| 2026-05-06 14:20 | 35.93957 | -107.12707 | 36965 ft | 518 kts | 73° |
| 2026-05-06 14:20 | 35.96124 | -107.04224 | 36961 ft | 518 kts | 73° |
| 2026-05-06 14:21 | 35.98286 | -106.95730 | 36958 ft | 519 kts | 73° |
| 2026-05-06 14:21 | 36.00446 | -106.87219 | 36956 ft | 520 kts | 73° |
| 2026-05-06 14:22 | 36.02588 | -106.78747 | 36944 ft | 521 kts | 73° |
| 2026-05-06 14:22 | 36.04745 | -106.70191 | 36935 ft | 522 kts | 73° |
| 2026-05-06 14:23 | 36.06897 | -106.61625 | 36941 ft | 523 kts | 73° |
| 2026-05-06 14:23 | 36.09049 | -106.53028 | 36947 ft | 524 kts | 73° |
| 2026-05-06 14:24 | 36.11185 | -106.44467 | 36959 ft | 525 kts | 74° |
| 2026-05-06 14:24 | 36.13333 | -106.35830 | 36948 ft | 526 kts | 74° |
| 2026-05-06 14:25 | 36.15480 | -106.27164 | 36922 ft | 527 kts | 74° |
| 2026-05-06 14:25 | 36.17625 | -106.18480 | 36941 ft | 528 kts | 74° |
| 2026-05-06 14:26 | 36.19767 | -106.09773 | 36911 ft | 530 kts | 74° |
| 2026-05-06 14:26 | 36.21894 | -106.01099 | 36906 ft | 530 kts | 74° |
| 2026-05-06 14:27 | 36.24032 | -105.92349 | 36906 ft | 531 kts | 74° |
| 2026-05-06 14:27 | 36.26166 | -105.83587 | 36900 ft | 532 kts | 75° |
| 2026-05-06 14:28 | 36.28297 | -105.74803 | 36910 ft | 532 kts | 75° |
| 2026-05-06 14:28 | 36.30409 | -105.66065 | 36924 ft | 533 kts | 75° |
| 2026-05-06 14:29 | 36.32535 | -105.57247 | 36983 ft | 535 kts | 75° |
| 2026-05-06 14:29 | 36.34659 | -105.48397 | 37035 ft | 536 kts | 75° |
| 2026-05-06 14:30 | 36.36782 | -105.39519 | 37092 ft | 538 kts | 75° |
| 2026-05-06 14:30 | 36.38891 | -105.30669 | 37080 ft | 540 kts | 75° |
| 2026-05-06 14:31 | 36.41014 | -105.21733 | 37094 ft | 540 kts | 75° |
| 2026-05-06 14:31 | 36.43135 | -105.12781 | 37056 ft | 542 kts | 75° |
| 2026-05-06 14:32 | 36.45254 | -105.03804 | 37017 ft | 542 kts | 75° |
| 2026-05-06 14:32 | 36.47366 | -104.94822 | 36960 ft | 542 kts | 75° |
| 2026-05-06 14:33 | 36.49627 | -104.85959 | 36883 ft | 542 kts | 65° |
| 2026-05-06 14:33 | 36.52826 | -104.77448 | 36930 ft | 544 kts | 65° |
| 2026-05-06 14:34 | 36.56033 | -104.68911 | 36979 ft | 545 kts | 65° |
| 2026-05-06 14:34 | 36.59239 | -104.60369 | 37016 ft | 545 kts | 65° |
| 2026-05-06 14:35 | 36.62418 | -104.51872 | 37043 ft | 546 kts | 65° |
| 2026-05-06 14:35 | 36.65622 | -104.43289 | 37053 ft | 547 kts | 65° |
| 2026-05-06 14:36 | 36.68818 | -104.34702 | 37040 ft | 547 kts | 65° |